Time;durP1;ratioP1;P1;durP2;ratioP2;P2;SDS_P1;SDS_P2;PMS_P1;PMS_P2;Temp;Humidity;BMP_temperature;BMP_pressure;BME280_temperature;BME280_humidity;BME280_pressure;Samples;Min_cycle;Max_cycle;Signal;HPM_P1;HPM_P2
2022/01/28 00:01:26;;;;;;;16.58;7.22;;;0.80;99.90;;;;;;5021850;28;20974;-92
2022/01/28 00:04:01;;;;;;;13.80;5.40;;;0.80;99.90;;;;;;5005073;28;20896;-91
2022/01/28 00:06:29;;;;;;;11.30;4.83;;;0.70;99.90;;;;;;5005016;28;20405;-92
2022/01/28 00:08:56;;;;;;;14.00;5.93;;;0.70;99.90;;;;;;5006590;28;20768;-92
2022/01/28 00:11:24;;;;;;;13.07;4.88;;;0.80;99.90;;;;;;4989100;28;20972;-93
2022/01/28 00:13:58;;;;;;;11.02;4.43;;;0.70;99.90;;;;;;4972792;28;20412;-92
2022/01/28 00:16:58;;;;;;;7.68;3.35;;;0.80;99.90;;;;;;5004003;28;20830;-91
2022/01/28 00:20:03;;;;;;;8.68;3.33;;;0.70;99.90;;;;;;5041300;28;20414;-93
2022/01/28 00:38:51;;;;;;;17.47;8.00;;;0.90;99.90;;;;;;5011704;28;20804;-93
2022/01/28 00:41:19;;;;;;;15.95;8.88;;;0.80;99.90;;;;;;5011619;28;20479;-94
2022/01/28 00:43:46;;;;;;;22.65;11.57;;;0.80;99.90;;;;;;5008206;28;20408;-88
2022/01/28 00:46:14;;;;;;;29.60;17.60;;;0.90;99.90;;;;;;5008418;28;20450;-93
2022/01/28 00:48:42;;;;;;;25.25;13.70;;;0.90;99.90;;;;;;4986527;28;20404;-93
2022/01/28 00:51:09;;;;;;;24.90;13.50;;;0.90;99.90;;;;;;4991925;28;20437;-94
2022/01/28 00:53:38;;;;;;;25.45;11.90;;;0.90;99.90;;;;;;4992044;28;20419;-92
2022/01/28 00:56:06;;;;;;;26.20;15.05;;;0.90;99.90;;;;;;4991746;28;20828;-93
2022/01/28 00:58:34;;;;;;;31.48;18.35;;;0.90;99.90;;;;;;4991854;28;20417;-90
2022/01/28 01:01:02;;;;;;;37.03;24.27;;;0.90;99.90;;;;;;4992018;28;20429;-91
2022/01/28 01:03:30;;;;;;;32.70;20.60;;;0.90;99.90;;;;;;4991702;28;20473;-92
2022/01/28 01:05:57;;;;;;;34.47;22.02;;;0.90;99.90;;;;;;4991701;28;20397;-91
2022/01/28 01:08:25;;;;;;;32.42;19.15;;;0.90;99.90;;;;;;5024333;28;20405;-92
2022/01/28 01:10:54;;;;;;;40.03;23.80;;;0.90;99.90;;;;;;4991708;28;20451;-93
2022/01/28 01:13:22;;;;;;;54.58;33.45;;;0.90;99.90;;;;;;5024502;28;20408;-93
2022/01/28 01:15:54;;;;;;;63.17;38.90;;;0.90;99.90;;;;;;4977645;28;20409;-93
2022/01/28 01:18:33;;;;;;;58.95;37.33;;;0.90;99.90;;;;;;5010977;28;20442;-93
2022/01/28 01:21:09;;;;;;;46.97;27.27;;;0.90;99.90;;;;;;5027591;28;20415;-90
2022/01/28 01:23:39;;;;;;;32.30;17.33;;;0.90;99.90;;;;;;5011040;28;20403;-93
2022/01/28 01:26:11;;;;;;;26.50;12.27;;;0.80;99.90;;;;;;5011084;28;20403;-92
2022/01/28 01:28:41;;;;;;;21.42;10.23;;;0.80;99.90;;;;;;5010841;28;20399;-92
2022/01/28 01:31:15;;;;;;;15.90;6.50;;;0.80;99.90;;;;;;5010019;28;20415;-93
2022/01/28 01:33:53;;;;;;;13.23;5.60;;;0.80;99.90;;;;;;5027592;28;20410;-93
2022/01/28 01:36:21;;;;;;;9.47;2.40;;;0.80;99.90;;;;;;5023877;28;20416;-92
2022/01/28 01:38:49;;;;;;;5.55;1.80;;;0.80;99.90;;;;;;5007277;28;20405;-92
2022/01/28 01:41:29;;;;;;;6.70;1.75;;;0.80;99.90;;;;;;4975447;28;20497;-93
2022/01/28 01:44:02;;;;;;;4.75;1.50;;;0.80;99.90;;;;;;5006943;28;20493;-93
2022/01/28 01:52:05;;;;;;;6.10;1.50;;;0.80;99.90;;;;;;5023774;28;20413;-92
2022/01/28 01:54:37;;;;;;;6.03;1.55;;;0.80;99.90;;;;;;5014991;28;20911;-93
2022/01/28 01:57:06;;;;;;;7.75;2.53;;;0.80;99.90;;;;;;5010386;28;20470;-92
2022/01/28 01:59:34;;;;;;;10.23;4.70;;;0.80;99.90;;;;;;5027073;28;20882;-92
2022/01/28 02:02:02;;;;;;;18.85;7.90;;;0.80;99.90;;;;;;5027160;28;20425;-94
2022/01/28 02:04:31;;;;;;;14.98;6.97;;;0.80;99.90;;;;;;4994310;28;20410;-92
2022/01/28 02:07:00;;;;;;;10.07;3.95;;;0.80;99.90;;;;;;5027136;28;20508;-93
2022/01/28 02:09:28;;;;;;;8.70;3.67;;;0.80;99.90;;;;;;5010847;28;20759;-93
2022/01/28 02:11:56;;;;;;;12.93;6.68;;;0.80;99.90;;;;;;5023080;28;20421;-93
2022/01/28 02:14:23;;;;;;;16.25;8.48;;;0.80;99.90;;;;;;5007144;28;20431;-93
2022/01/28 02:16:51;;;;;;;7.70;3.53;;;0.80;99.90;;;;;;5006770;28;20500;-92
2022/01/28 02:19:19;;;;;;;6.93;3.53;;;0.70;99.90;;;;;;5006936;28;20526;-92
2022/01/28 02:21:50;;;;;;;8.63;3.17;;;0.70;99.90;;;;;;5006386;28;20441;-93
2022/01/28 02:24:25;;;;;;;5.70;2.60;;;0.70;99.90;;;;;;5006784;28;20925;-93
2022/01/28 02:26:53;;;;;;;4.53;2.03;;;0.70;99.90;;;;;;5006986;28;20408;-92
2022/01/28 02:29:31;;;;;;;4.40;1.83;;;0.70;99.90;;;;;;4990505;28;20417;-92
2022/01/28 02:32:01;;;;;;;3.93;1.20;;;0.70;99.90;;;;;;5006846;28;20420;-93
2022/01/28 02:34:29;;;;;;;2.05;1.30;;;0.70;99.90;;;;;;5007083;28;20429;-93
2022/01/28 02:36:57;;;;;;;3.08;1.27;;;0.70;99.90;;;;;;5006822;28;20405;-90
2022/01/28 02:39:25;;;;;;;3.00;1.10;;;0.70;99.90;;;;;;5006236;28;20756;-92
2022/01/28 02:42:00;;;;;;;2.08;0.98;;;0.60;99.90;;;;;;5006365;28;20413;-92
2022/01/28 02:47:05;;;;;;;2.88;0.90;;;0.60;99.90;;;;;;5009768;28;20870;-92
2022/01/28 02:49:36;;;;;;;4.88;1.30;;;0.60;99.90;;;;;;5026641;28;20442;-93
2022/01/28 02:52:05;;;;;;;2.42;0.90;;;0.60;99.90;;;;;;5026218;28;20466;-93
2022/01/28 02:54:40;;;;;;;2.47;1.20;;;0.60;99.90;;;;;;5026228;28;20395;-93
2022/01/28 02:57:08;;;;;;;3.13;1.00;;;0.60;99.90;;;;;;5009454;28;20427;-94
2022/01/28 02:59:35;;;;;;;4.10;1.45;;;0.60;99.90;;;;;;5009345;28;20403;-91
2022/01/28 03:02:03;;;;;;;2.00;0.80;;;0.70;99.90;;;;;;5042382;28;20415;-91
2022/01/28 03:05:01;;;;;;;2.92;1.10;;;0.60;99.90;;;;;;5009537;28;20427;-92
2022/01/28 03:07:23;;;;;;;3.20;1.13;;;0.70;99.90;;;;;;5009252;28;20447;-91
2022/01/28 03:10:14;;;;;;;3.37;1.27;;;0.60;99.90;;;;;;5009594;28;20487;-93
2022/01/28 03:13:02;;;;;;;5.60;1.50;;;0.70;99.90;;;;;;5042698;28;20399;-93
2022/01/28 03:15:32;;;;;;;5.00;1.60;;;0.70;99.90;;;;;;5025749;28;20388;-92
2022/01/28 03:18:13;;;;;;;6.15;1.35;;;0.60;99.90;;;;;;5026163;28;20416;-93
2022/01/28 03:20:59;;;;;;;4.35;2.20;;;0.60;99.90;;;;;;5026025;28;20426;-92
2022/01/28 03:23:27;;;;;;;4.32;2.00;;;0.60;99.90;;;;;;5009117;28;20483;-93
2022/01/28 03:25:55;;;;;;;6.80;2.05;;;0.60;99.90;;;;;;5026187;28;20471;-93
2022/01/28 03:28:22;;;;;;;11.52;1.83;;;0.60;99.90;;;;;;5025309;28;20398;-90
2022/01/28 03:30:50;;;;;;;3.85;2.08;;;0.60;99.90;;;;;;5025552;28;20410;-91
2022/01/28 03:33:18;;;;;;;7.53;2.03;;;0.60;99.90;;;;;;5025530;28;20407;-91
2022/01/28 03:35:46;;;;;;;11.07;1.90;;;0.60;99.90;;;;;;5009212;28;20447;-91
2022/01/28 03:38:13;;;;;;;10.88;1.88;;;0.60;99.90;;;;;;5025957;28;20440;-91
2022/01/28 03:40:42;;;;;;;7.63;1.70;;;0.60;99.90;;;;;;4992567;28;20400;-91
2022/01/28 03:43:10;;;;;;;16.10;1.88;;;0.50;99.90;;;;;;5025480;28;20410;-91
2022/01/28 03:45:38;;;;;;;23.60;3.25;;;0.50;99.90;;;;;;4992495;28;20536;-91
2022/01/28 03:48:05;;;;;;;15.63;2.20;;;0.60;99.90;;;;;;4992511;28;20495;-91
2022/01/28 03:50:34;;;;;;;13.55;2.13;;;0.60;99.90;;;;;;4988766;28;20413;-92
2022/01/28 03:53:05;;;;;;;6.53;2.00;;;0.60;99.90;;;;;;4991403;28;20447;-91
2022/01/28 03:55:33;;;;;;;9.13;1.97;;;0.60;99.90;;;;;;5025128;28;20486;-91
2022/01/28 03:58:02;;;;;;;5.57;1.95;;;0.60;99.90;;;;;;5025804;28;20427;-91
2022/01/28 04:00:31;;;;;;;10.85;2.53;;;0.60;99.90;;;;;;5021650;28;20437;-91
2022/01/28 04:14:15;;;;;;;5.95;2.10;;;0.70;99.90;;;;;;5011950;28;20391;-94
2022/01/28 04:19:29;;;;;;;5.60;2.13;;;0.70;99.90;;;;;;5043894;28;20407;-92
2022/01/28 04:21:57;;;;;;;8.98;2.45;;;0.70;99.90;;;;;;4995884;28;20456;-93
2022/01/28 04:24:25;;;;;;;3.83;2.30;;;0.70;99.90;;;;;;5012252;28;20402;-91
2022/01/28 04:26:52;;;;;;;5.15;2.63;;;0.70;99.90;;;;;;5011812;28;20469;-91
2022/01/28 04:29:20;;;;;;;3.55;2.08;;;0.70;99.90;;;;;;4995638;28;20464;-90
2022/01/28 04:31:48;;;;;;;3.97;2.38;;;0.70;99.90;;;;;;5011631;28;20423;-92
2022/01/28 04:34:17;;;;;;;3.90;2.60;;;0.70;99.90;;;;;;4992196;28;20411;-92
2022/01/28 04:39:44;;;;;;;7.20;2.53;;;0.70;99.90;;;;;;4998556;28;20914;-91
2022/01/28 04:45:14;;;;;;;6.50;2.80;;;0.70;99.90;;;;;;5024853;28;20477;-92
2022/01/28 04:58:22;;;;;;;7.83;4.17;;;0.70;99.90;;;;;;5024867;28;20404;-92
2022/01/28 05:01:10;;;;;;;9.50;3.50;;;0.70;99.90;;;;;;5010203;28;20407;-92
2022/01/28 05:24:09;;;;;;;9.65;3.28;;;0.60;99.90;;;;;;5011039;28;20399;-91
2022/01/28 05:28:49;;;;;;;8.05;4.07;;;0.60;99.90;;;;;;5010758;28;20406;-91
2022/01/28 05:31:17;;;;;;;7.70;4.28;;;0.70;99.90;;;;;;4994652;28;20432;-91
2022/01/28 05:33:46;;;;;;;8.25;4.00;;;0.70;99.90;;;;;;4994662;28;20901;-91
2022/01/28 05:36:14;;;;;;;7.68;3.15;;;0.70;99.90;;;;;;4994602;28;20407;-91
2022/01/28 05:38:42;;;;;;;7.97;2.67;;;0.60;99.90;;;;;;5010743;28;20415;-90
2022/01/28 05:41:10;;;;;;;8.18;2.97;;;0.50;99.90;;;;;;5010863;28;20439;-91
2022/01/28 05:43:38;;;;;;;8.18;3.67;;;0.50;99.90;;;;;;5011371;28;20526;-90
2022/01/28 05:46:07;;;;;;;10.55;3.33;;;0.50;99.90;;;;;;4994496;28;20446;-91
2022/01/28 05:48:35;;;;;;;8.18;3.55;;;0.60;99.90;;;;;;5010751;28;20403;-91
2022/01/28 05:51:03;;;;;;;7.38;3.22;;;0.70;99.90;;;;;;4994043;28;20901;-92
2022/01/28 05:53:31;;;;;;;6.15;2.85;;;0.70;99.90;;;;;;5010439;28;20407;-92
2022/01/28 05:55:59;;;;;;;3.38;1.65;;;0.70;99.90;;;;;;4994527;28;20437;-92
2022/01/28 05:58:27;;;;;;;3.50;1.45;;;0.70;99.90;;;;;;4992675;28;20403;-92
2022/01/28 06:00:55;;;;;;;2.45;1.00;;;0.70;99.90;;;;;;5026646;28;20411;-92
2022/01/28 06:03:23;;;;;;;4.57;2.17;;;0.60;99.90;;;;;;4994305;28;20410;-92
2022/01/28 06:05:51;;;;;;;3.40;1.50;;;0.70;99.90;;;;;;4994149;28;20471;-91
2022/01/28 06:08:19;;;;;;;7.40;1.50;;;0.70;99.90;;;;;;5009421;28;20426;-93
2022/01/28 06:10:47;;;;;;;1.77;1.17;;;0.70;99.90;;;;;;5004696;28;20417;-92
2022/01/28 06:13:14;;;;;;;2.20;1.10;;;0.70;99.90;;;;;;5011556;28;20395;-92
2022/01/28 06:15:43;;;;;;;5.20;0.95;;;0.70;99.90;;;;;;4993405;28;20403;-93
2022/01/28 06:18:12;;;;;;;2.10;1.10;;;0.70;99.90;;;;;;5006941;28;20429;-92
2022/01/28 06:20:40;;;;;;;2.25;1.10;;;0.60;99.90;;;;;;4999662;28;20503;-92
2022/01/28 06:23:12;;;;;;;2.33;1.20;;;0.70;99.90;;;;;;5006634;28;20408;-93
2022/01/28 06:25:40;;;;;;;2.35;1.20;;;0.70;99.90;;;;;;4991236;28;20487;-92
2022/01/28 06:28:08;;;;;;;1.98;1.00;;;0.70;99.90;;;;;;4975704;28;20401;-93
2022/01/28 06:30:36;;;;;;;1.70;0.82;;;0.70;99.90;;;;;;4989785;28;20393;-92
2022/01/28 06:33:04;;;;;;;3.30;0.75;;;0.70;99.90;;;;;;4974837;28;20402;-92
2022/01/28 06:35:32;;;;;;;1.48;0.80;;;0.70;99.90;;;;;;4990962;28;20425;-92
2022/01/28 06:38:00;;;;;;;1.55;0.80;;;0.70;99.90;;;;;;4990245;28;20409;-92
2022/01/28 06:40:28;;;;;;;2.05;1.00;;;0.70;99.90;;;;;;4990204;28;20403;-93
2022/01/28 06:42:55;;;;;;;2.70;1.20;;;0.80;99.90;;;;;;4990381;28;20417;-91
2022/01/28 06:45:23;;;;;;;2.25;1.10;;;0.70;99.90;;;;;;4974209;28;20393;-93
2022/01/28 06:47:51;;;;;;;1.75;0.90;;;0.80;99.90;;;;;;4990298;28;20401;-92
2022/01/28 06:50:19;;;;;;;1.55;0.88;;;0.70;99.90;;;;;;4974356;28;20406;-92
2022/01/28 06:52:47;;;;;;;1.15;0.80;;;0.70;99.90;;;;;;5006689;28;20508;-93
2022/01/28 06:55:16;;;;;;;2.00;0.90;;;0.70;99.90;;;;;;4990371;28;20894;-93
2022/01/28 06:57:44;;;;;;;1.33;0.80;;;0.60;99.90;;;;;;4989972;28;20455;-92
2022/01/28 07:00:12;;;;;;;2.10;1.00;;;0.70;99.90;;;;;;4990072;28;20937;-93
2022/01/28 07:02:40;;;;;;;1.52;0.82;;;0.70;99.90;;;;;;4989887;28;20401;-93
2022/01/28 07:05:09;;;;;;;2.17;1.00;;;0.70;99.90;;;;;;4989936;28;20886;-92
2022/01/28 07:07:37;;;;;;;2.38;1.08;;;0.70;99.90;;;;;;4989752;28;20393;-92
2022/01/28 07:10:05;;;;;;;2.15;0.88;;;0.70;99.90;;;;;;4989662;28;20389;-93
2022/01/28 07:12:33;;;;;;;2.38;1.05;;;0.70;99.90;;;;;;4989830;28;20817;-92
2022/01/28 07:15:01;;;;;;;3.15;1.08;;;0.70;99.90;;;;;;4999643;28;20412;-92
2022/01/28 07:17:29;;;;;;;2.75;1.00;;;0.70;99.90;;;;;;5026003;28;20411;-92
2022/01/28 07:19:57;;;;;;;2.45;1.10;;;0.70;99.90;;;;;;5009423;28;20391;-92
2022/01/28 07:22:25;;;;;;;1.95;1.05;;;0.70;99.90;;;;;;5039370;28;20460;-92
2022/01/28 07:24:53;;;;;;;1.67;0.93;;;0.70;99.90;;;;;;5008354;28;20449;-92
2022/01/28 07:27:21;;;;;;;2.10;1.00;;;0.70;99.90;;;;;;5008869;28;20873;-93
2022/01/28 07:29:50;;;;;;;1.48;0.80;;;0.70;99.90;;;;;;5009164;28;20889;-92
2022/01/28 07:32:18;;;;;;;1.98;0.98;;;0.80;99.90;;;;;;4992923;28;20403;-91
2022/01/28 07:34:47;;;;;;;2.05;1.00;;;0.70;99.90;;;;;;5008887;28;20399;-92
2022/01/28 07:37:15;;;;;;;2.13;0.93;;;0.70;99.90;;;;;;5009349;28;20400;-92
2022/01/28 07:39:45;;;;;;;2.83;0.90;;;0.80;99.90;;;;;;4993012;28;20392;-92
2022/01/28 07:42:13;;;;;;;2.30;1.17;;;0.80;99.90;;;;;;4992456;28;20407;-92
2022/01/28 07:44:41;;;;;;;1.50;0.90;;;0.80;99.90;;;;;;4992918;28;20453;-92
2022/01/28 07:47:08;;;;;;;2.13;0.90;;;0.80;99.90;;;;;;5025649;28;20501;-92
2022/01/28 07:49:36;;;;;;;1.10;0.60;;;0.80;99.90;;;;;;4992876;28;20487;-92
2022/01/28 07:52:06;;;;;;;0.85;0.60;;;0.80;99.90;;;;;;5041132;28;20404;-93
2022/01/28 07:54:34;;;;;;;1.50;0.68;;;0.80;99.90;;;;;;4992583;28;20399;-93
2022/01/28 07:57:02;;;;;;;2.35;0.77;;;0.80;99.90;;;;;;5008918;28;20411;-92
2022/01/28 07:59:30;;;;;;;3.35;0.70;;;0.80;99.90;;;;;;4992594;28;20399;-92
2022/01/28 08:01:58;;;;;;;0.85;0.57;;;0.80;99.90;;;;;;5008891;28;20574;-93
2022/01/28 08:04:26;;;;;;;0.80;0.55;;;0.90;99.90;;;;;;4992581;28;20506;-93
2022/01/28 08:06:54;;;;;;;0.60;0.47;;;0.80;99.90;;;;;;4992443;28;20419;-92
2022/01/28 08:09:21;;;;;;;0.35;0.30;;;0.80;99.90;;;;;;5008406;28;20494;-91
2022/01/28 08:11:49;;;;;;;0.63;0.40;;;0.80;99.90;;;;;;4992064;28;20543;-92
2022/01/28 08:14:17;;;;;;;0.40;0.40;;;0.80;99.90;;;;;;5008907;28;20404;-91
2022/01/28 08:16:44;;;;;;;0.55;0.40;;;0.90;99.90;;;;;;5024999;28;20403;-92
2022/01/28 08:19:12;;;;;;;0.38;0.38;;;0.90;99.90;;;;;;4992518;28;20403;-92
2022/01/28 08:21:40;;;;;;;1.15;0.50;;;0.90;99.90;;;;;;4992258;28;20403;-92
2022/01/28 08:24:08;;;;;;;0.73;0.40;;;0.90;99.90;;;;;;4992219;28;20392;-91
2022/01/28 08:26:36;;;;;;;0.40;0.40;;;0.80;99.90;;;;;;5009249;28;20407;-90
2022/01/28 08:29:05;;;;;;;0.60;0.40;;;0.90;99.90;;;;;;4993189;28;20391;-92
2022/01/28 08:31:36;;;;;;;0.50;0.40;;;0.90;99.90;;;;;;5015236;28;20972;-92
2022/01/28 08:34:05;;;;;;;0.90;0.60;;;0.90;99.90;;;;;;4992307;28;20482;-93
2022/01/28 08:36:34;;;;;;;0.40;0.30;;;0.90;99.90;;;;;;5077205;28;20414;-91
2022/01/28 08:39:04;;;;;;;0.55;0.40;;;1.00;99.90;;;;;;5008330;28;20468;-91
2022/01/28 08:41:34;;;;;;;0.68;0.40;;;1.00;99.90;;;;;;5025245;28;20903;-93
2022/01/28 08:44:03;;;;;;;0.47;0.40;;;1.00;99.90;;;;;;5025785;28;20418;-91
2022/01/28 08:46:32;;;;;;;0.40;0.40;;;1.00;99.90;;;;;;5009505;28;20411;-90
2022/01/28 08:49:01;;;;;;;0.45;0.32;;;1.10;99.90;;;;;;5009964;28;20484;-90
2022/01/28 08:51:29;;;;;;;0.45;0.40;;;1.10;99.90;;;;;;4993372;28;20467;-92
2022/01/28 08:53:57;;;;;;;0.60;0.43;;;1.00;99.90;;;;;;4994150;28;20439;-92
2022/01/28 08:56:24;;;;;;;0.93;0.60;;;1.00;99.90;;;;;;4996795;28;20440;-91
2022/01/28 08:58:52;;;;;;;0.87;0.50;;;1.00;99.90;;;;;;4997702;28;20409;-90
2022/01/28 09:01:21;;;;;;;0.30;0.30;;;1.00;99.90;;;;;;4998322;28;20407;-92
2022/01/28 09:03:51;;;;;;;1.02;0.30;;;1.00;99.90;;;;;;4995771;28;20400;-90
2022/01/28 09:06:19;;;;;;;0.37;0.37;;;1.00;99.90;;;;;;4995090;28;20419;-91
2022/01/28 09:08:48;;;;;;;0.75;0.50;;;1.00;99.90;;;;;;4995210;28;20404;-90
2022/01/28 09:13:52;;;;;;;0.57;0.50;;;1.00;99.90;;;;;;5011075;28;20446;-91
2022/01/28 09:16:21;;;;;;;0.60;0.50;;;1.00;99.90;;;;;;4994837;28;20446;-91
2022/01/28 09:18:51;;;;;;;0.47;0.47;;;1.00;99.90;;;;;;4995011;28;20399;-91
2022/01/28 09:21:19;;;;;;;0.57;0.50;;;1.00;99.90;;;;;;4994957;28;20404;-90
2022/01/28 09:23:47;;;;;;;0.90;0.60;;;1.00;99.90;;;;;;5011087;28;20955;-91
2022/01/28 09:26:15;;;;;;;0.40;0.40;;;1.00;99.90;;;;;;4994766;28;20507;-90
2022/01/28 09:28:43;;;;;;;0.50;0.50;;;1.00;99.90;;;;;;5011042;28;20429;-91
2022/01/28 09:31:11;;;;;;;0.68;0.60;;;1.00;99.90;;;;;;4994513;28;20502;-89
2022/01/28 09:33:40;;;;;;;0.55;0.50;;;1.00;99.90;;;;;;4995159;28;20407;-90
2022/01/28 09:36:08;;;;;;;0.80;0.52;;;0.90;99.90;;;;;;4995464;28;20408;-90
2022/01/28 09:38:36;;;;;;;0.75;0.60;;;1.00;99.90;;;;;;5013458;28;20407;-92
2022/01/28 09:41:06;;;;;;;1.10;0.80;;;0.90;99.90;;;;;;4995909;28;20925;-90
2022/01/28 09:43:35;;;;;;;0.98;0.63;;;0.90;99.90;;;;;;4995535;28;20408;-91
2022/01/28 09:46:04;;;;;;;1.10;0.70;;;0.90;99.90;;;;;;4998362;28;20407;-89
2022/01/28 09:48:32;;;;;;;1.50;0.90;;;0.90;99.90;;;;;;5012253;28;20870;-90
2022/01/28 09:51:02;;;;;;;1.35;0.70;;;0.90;99.90;;;;;;4995608;28;20675;-90
2022/01/28 09:53:30;;;;;;;0.73;0.63;;;0.90;99.90;;;;;;4996063;28;20415;-92
2022/01/28 09:55:58;;;;;;;0.90;0.80;;;1.00;99.90;;;;;;4998163;28;20411;-93
2022/01/28 09:58:26;;;;;;;1.10;0.80;;;1.00;99.90;;;;;;4995881;28;20419;-90
2022/01/28 10:00:54;;;;;;;0.90;0.70;;;1.00;99.90;;;;;;4994294;28;20415;-90
2022/01/28 10:03:25;;;;;;;0.80;0.50;;;1.00;99.90;;;;;;4994114;28;20414;-90
2022/01/28 10:05:57;;;;;;;0.70;0.50;;;1.00;99.90;;;;;;5010194;28;20768;-90
2022/01/28 10:08:27;;;;;;;1.00;0.60;;;1.00;99.90;;;;;;4994272;28;20403;-91
2022/01/28 10:11:03;;;;;;;0.75;0.70;;;1.10;99.90;;;;;;4994238;28;20404;-90
2022/01/28 10:16:19;;;;;;;0.70;0.60;;;1.00;99.90;;;;;;5010238;28;20407;-89
2022/01/28 10:18:53;;;;;;;0.75;0.57;;;1.00;99.90;;;;;;5010298;28;20425;-90
2022/01/28 10:21:37;;;;;;;0.50;0.40;;;1.00;99.90;;;;;;5010092;28;20395;-91
2022/01/28 10:24:15;;;;;;;0.80;0.60;;;1.00;99.90;;;;;;5010269;28;20746;-89
2022/01/28 10:27:09;;;;;;;0.50;0.40;;;1.00;99.90;;;;;;4994440;28;20763;-90
2022/01/28 10:29:40;;;;;;;0.50;0.40;;;0.90;99.90;;;;;;4995762;28;20391;-89
2022/01/28 10:32:12;;;;;;;0.50;0.40;;;0.90;99.90;;;;;;4993842;28;20432;-92
2022/01/28 10:34:48;;;;;;;0.40;0.40;;;0.90;99.90;;;;;;5010337;28;20931;-90
2022/01/28 10:37:28;;;;;;;0.60;0.40;;;0.90;99.90;;;;;;5012097;28;20415;-89
2022/01/28 10:40:01;;;;;;;0.80;0.65;;;0.90;99.90;;;;;;5010825;28;20908;-89
2022/01/28 10:42:50;;;;;;;0.55;0.40;;;0.90;99.90;;;;;;4993899;28;20389;-89
2022/01/28 10:45:20;;;;;;;0.50;0.40;;;0.90;99.90;;;;;;5010240;28;20438;-90
2022/01/28 10:47:53;;;;;;;0.50;0.40;;;0.90;99.90;;;;;;5009993;28;20490;-90
2022/01/28 10:50:30;;;;;;;0.50;0.50;;;0.90;99.90;;;;;;5009639;28;20405;-89
2022/01/28 10:53:09;;;;;;;0.63;0.40;;;1.00;99.90;;;;;;5009935;28;20784;-91
2022/01/28 10:55:45;;;;;;;1.75;0.60;;;0.90;99.90;;;;;;5010219;28;20869;-91
2022/01/28 10:58:16;;;;;;;0.60;0.50;;;1.00;99.90;;;;;;5010018;28;20468;-92
2022/01/28 11:00:46;;;;;;;0.50;0.40;;;0.90;99.90;;;;;;4994196;28;20414;-89
2022/01/28 11:03:17;;;;;;;0.30;0.30;;;0.90;99.90;;;;;;5009986;28;20403;-91
2022/01/28 11:05:45;;;;;;;0.30;0.30;;;0.90;99.90;;;;;;4993203;28;20399;-91
2022/01/28 11:08:14;;;;;;;0.30;0.30;;;0.90;99.90;;;;;;4993503;28;20391;-90
2022/01/28 11:10:44;;;;;;;0.55;0.40;;;0.90;99.90;;;;;;5010465;28;20423;-92
2022/01/28 11:13:12;;;;;;;0.75;0.40;;;0.90;99.90;;;;;;4993811;28;20392;-92
2022/01/28 11:15:40;;;;;;;0.53;0.30;;;0.90;99.90;;;;;;5009454;28;20395;-92
2022/01/28 11:18:11;;;;;;;0.63;0.30;;;0.90;99.90;;;;;;5068526;28;20491;-92
2022/01/28 11:20:41;;;;;;;0.53;0.40;;;0.90;99.90;;;;;;5112200;28;20391;-92
2022/01/28 11:23:15;;;;;;;0.30;0.30;;;0.90;99.90;;;;;;5039582;28;20462;-91
2022/01/28 11:26:18;;;;;;;0.50;0.40;;;0.90;99.90;;;;;;4989518;28;20476;-92
2022/01/28 11:28:50;;;;;;;0.30;0.30;;;0.90;99.90;;;;;;5010633;28;20500;-89
2022/01/28 11:31:47;;;;;;;0.68;0.40;;;0.90;99.90;;;;;;5006198;28;20513;-92
2022/01/28 11:34:30;;;;;;;0.47;0.38;;;0.80;99.90;;;;;;4989956;28;20491;-90
2022/01/28 11:37:17;;;;;;;0.50;0.50;;;0.80;99.90;;;;;;4989123;28;20500;-90
2022/01/28 11:39:47;;;;;;;0.57;0.47;;;0.80;99.90;;;;;;4978326;28;20476;-90
2022/01/28 11:42:26;;;;;;;0.43;0.43;;;0.80;99.90;;;;;;5003609;28;20860;-89
2022/01/28 11:44:59;;;;;;;0.70;0.50;;;0.70;99.90;;;;;;4972881;28;20926;-90
2022/01/28 11:47:27;;;;;;;0.65;0.60;;;0.70;99.90;;;;;;4989341;28;20393;-91
2022/01/28 11:49:58;;;;;;;0.80;0.60;;;0.60;99.90;;;;;;5005382;28;20415;-90
2022/01/28 11:52:31;;;;;;;1.20;0.60;;;0.60;99.90;;;;;;5004957;28;20451;-90
2022/01/28 11:55:15;;;;;;;0.80;0.65;;;0.70;99.90;;;;;;4989186;28;20833;-89
2022/01/28 11:58:08;;;;;;;0.90;0.70;;;0.60;99.90;;;;;;5005359;28;20401;-92
2022/01/28 12:00:40;;;;;;;0.60;0.60;;;0.70;99.90;;;;;;5005407;28;20821;-90
2022/01/28 12:03:20;;;;;;;0.80;0.70;;;0.70;99.90;;;;;;5023202;28;20413;-90
2022/01/28 12:05:50;;;;;;;0.90;0.80;;;0.70;99.90;;;;;;5006755;28;20482;-92
2022/01/28 12:08:19;;;;;;;1.00;0.70;;;0.70;99.90;;;;;;4995523;28;20441;-92
2022/01/28 12:10:49;;;;;;;0.88;0.70;;;0.70;99.90;;;;;;5004590;28;20399;-89
2022/01/28 12:13:29;;;;;;;0.90;0.75;;;0.70;99.90;;;;;;5004861;28;20417;-93
2022/01/28 12:16:09;;;;;;;1.30;0.77;;;0.70;99.90;;;;;;5011187;28;20409;-91
2022/01/28 12:18:58;;;;;;;0.90;0.70;;;0.70;99.90;;;;;;5022997;28;20498;-90
2022/01/28 12:21:31;;;;;;;0.60;0.60;;;0.60;99.90;;;;;;5007577;28;20411;-91
2022/01/28 12:24:20;;;;;;;0.60;0.50;;;0.60;99.90;;;;;;5007874;28;20411;-90
2022/01/28 12:27:08;;;;;;;1.67;0.70;;;0.60;99.90;;;;;;5034811;28;20411;-92
2022/01/28 12:29:47;;;;;;;1.60;0.70;;;0.60;99.90;;;;;;5021129;28;20499;-92
2022/01/28 12:32:22;;;;;;;0.70;0.70;;;0.60;99.90;;;;;;4992071;28;20855;-91
2022/01/28 12:34:50;;;;;;;0.85;0.70;;;0.60;99.90;;;;;;5011110;28;20482;-92
2022/01/28 12:37:22;;;;;;;0.70;0.70;;;0.60;99.90;;;;;;5010189;28;20397;-91
2022/01/28 12:40:02;;;;;;;0.70;0.50;;;0.60;99.90;;;;;;5010830;28;20479;-91
2022/01/28 12:42:32;;;;;;;0.45;0.40;;;0.60;99.90;;;;;;5030546;28;20463;-91
2022/01/28 12:45:02;;;;;;;0.70;0.50;;;0.60;99.90;;;;;;5022605;28;20662;-92
2022/01/28 12:47:34;;;;;;;0.40;0.40;;;0.50;99.90;;;;;;5022188;28;20428;-91
2022/01/28 12:50:04;;;;;;;0.60;0.40;;;0.50;99.90;;;;;;5009753;28;20438;-91
2022/01/28 12:52:34;;;;;;;0.50;0.40;;;0.50;99.90;;;;;;5010311;28;20418;-92
2022/01/28 12:55:03;;;;;;;0.50;0.50;;;0.50;99.90;;;;;;5032865;28;20554;-92
2022/01/28 12:57:31;;;;;;;0.55;0.47;;;0.50;99.90;;;;;;5038493;28;20394;-93
2022/01/28 13:00:00;;;;;;;0.40;0.40;;;0.50;99.90;;;;;;4986839;28;20533;-92
2022/01/28 13:02:33;;;;;;;0.73;0.50;;;0.40;99.90;;;;;;4993110;28;21026;-89
2022/01/28 13:10:33;;;;;;;1.10;0.70;;;0.40;99.90;;;;;;5010905;28;20507;-90
2022/01/28 13:13:09;;;;;;;0.97;0.70;;;0.40;99.90;;;;;;5011012;28;20399;-89
2022/01/28 13:15:39;;;;;;;0.80;0.70;;;0.30;99.90;;;;;;5011059;28;20889;-90
2022/01/28 13:18:07;;;;;;;1.40;0.80;;;0.30;99.90;;;;;;5027563;28;20411;-90
2022/01/28 13:20:41;;;;;;;1.15;0.80;;;0.30;99.90;;;;;;5027871;28;20417;-90
2022/01/28 13:23:11;;;;;;;1.83;1.00;;;0.30;99.90;;;;;;5010969;28;20483;-91
2022/01/28 13:25:40;;;;;;;1.00;0.80;;;0.20;99.90;;;;;;5010736;28;20438;-90
2022/01/28 13:28:19;;;;;;;1.02;0.70;;;0.20;99.90;;;;;;5043864;27;20391;-90
2022/01/28 13:30:55;;;;;;;1.02;0.82;;;0.20;99.90;;;;;;5027305;28;20439;-89
2022/01/28 13:33:28;;;;;;;1.85;0.98;;;0.20;99.90;;;;;;5027806;28;20758;-90
2022/01/28 13:35:59;;;;;;;0.70;0.57;;;0.20;99.90;;;;;;5006005;28;20405;-89
2022/01/28 13:38:35;;;;;;;1.10;0.80;;;0.10;99.90;;;;;;5018505;28;20416;-89
2022/01/28 13:41:24;;;;;;;0.95;0.68;;;0.10;99.90;;;;;;5006817;28;20405;-90
2022/01/28 13:43:54;;;;;;;0.90;0.65;;;0.10;99.90;;;;;;5018367;28;20614;-90
2022/01/28 13:46:22;;;;;;;0.70;0.60;;;0.10;99.90;;;;;;5027066;28;20418;-89
2022/01/28 13:48:50;;;;;;;0.80;0.70;;;0.10;99.90;;;;;;5011466;28;20400;-89
2022/01/28 13:51:21;;;;;;;1.30;0.70;;;0.10;99.90;;;;;;5070503;28;20386;-90
2022/01/28 13:54:15;;;;;;;2.00;0.68;;;0.10;99.90;;;;;;5113957;28;20473;-89
2022/01/28 13:56:47;;;;;;;1.90;0.90;;;0.10;99.90;;;;;;5113486;28;20387;-90
2022/01/28 13:59:25;;;;;;;1.30;0.70;;;0.10;99.90;;;;;;5113660;28;20401;-90
2022/01/28 14:01:56;;;;;;;1.00;0.70;;;0.00;99.90;;;;;;5024743;28;20448;-90
2022/01/28 14:04:35;;;;;;;0.98;0.82;;;0.00;99.90;;;;;;5010111;28;20407;-90
2022/01/28 14:07:15;;;;;;;1.30;0.88;;;0.00;99.90;;;;;;5011245;28;20384;-90
2022/01/28 14:09:45;;;;;;;1.35;0.90;;;0.00;99.90;;;;;;4994173;28;20739;-89
2022/01/28 14:12:56;;;;;;;1.80;1.00;;;-0.10;99.90;;;;;;5009081;28;20411;-90
2022/01/28 14:15:43;;;;;;;1.60;1.10;;;-0.10;99.90;;;;;;4997102;28;20907;-89
2022/01/28 14:18:10;;;;;;;1.48;1.10;;;-0.10;99.90;;;;;;5033217;28;20438;-90
2022/01/28 14:20:38;;;;;;;1.35;0.90;;;-0.10;99.90;;;;;;5042936;28;20916;-89
2022/01/28 14:23:08;;;;;;;1.48;1.00;;;-0.20;99.90;;;;;;5009916;28;20441;-90
2022/01/28 14:25:36;;;;;;;1.50;1.00;;;-0.20;99.90;;;;;;5010798;28;20388;-91
2022/01/28 14:31:08;;;;;;;1.88;1.20;;;-0.20;99.90;;;;;;5063473;28;20470;-89
2022/01/28 14:33:36;;;;;;;1.17;1.00;;;-0.20;99.90;;;;;;5026046;28;20486;-90
2022/01/28 14:36:04;;;;;;;1.38;0.88;;;-0.20;99.90;;;;;;5025831;28;20877;-89
2022/01/28 14:38:32;;;;;;;1.40;0.90;;;-0.20;99.90;;;;;;5025715;28;20457;-90
2022/01/28 14:41:00;;;;;;;1.33;1.00;;;-0.20;99.90;;;;;;4992618;28;20729;-90
2022/01/28 14:43:27;;;;;;;1.53;1.10;;;-0.20;99.90;;;;;;5008428;28;20927;-89
2022/01/28 14:45:55;;;;;;;1.73;1.08;;;-0.20;99.90;;;;;;4986339;28;20404;-89
2022/01/28 14:48:25;;;;;;;1.60;1.02;;;-0.30;99.90;;;;;;5042299;28;20437;-90